sensor_id;sensor_type;location;lat;lon;timestamp;pressure;altitude;pressure_sealevel;temperature;humidity
16355;BME280;8287;51.644;8.494;2022-11-20T00:00:37;100057.00;;;-0.85;77.01
16355;BME280;8287;51.644;8.494;2022-11-20T00:03:03;100060.03;;;-0.88;77.20
16355;BME280;8287;51.644;8.494;2022-11-20T00:05:31;100073.75;;;-0.93;76.12
16355;BME280;8287;51.644;8.494;2022-11-20T00:07:58;100066.09;;;-0.99;75.67
16355;BME280;8287;51.644;8.494;2022-11-20T00:10:25;100072.34;;;-1.00;75.70
16355;BME280;8287;51.644;8.494;2022-11-20T00:12:53;100059.34;;;-1.00;76.58
16355;BME280;8287;51.644;8.494;2022-11-20T00:15:19;100062.56;;;-0.93;77.12
16355;BME280;8287;51.644;8.494;2022-11-20T00:17:46;100065.25;;;-0.88;77.42
16355;BME280;8287;51.644;8.494;2022-11-20T00:20:13;100063.66;;;-1.06;77.36
16355;BME280;8287;51.644;8.494;2022-11-20T00:22:40;100053.28;;;-1.06;76.89
16355;BME280;8287;51.644;8.494;2022-11-20T00:25:07;100056.19;;;-1.02;77.50
16355;BME280;8287;51.644;8.494;2022-11-20T00:27:33;100050.50;;;-0.99;77.65
16355;BME280;8287;51.644;8.494;2022-11-20T00:30:01;100051.38;;;-0.94;77.56
16355;BME280;8287;51.644;8.494;2022-11-20T00:32:28;100050.69;;;-1.06;76.50
16355;BME280;8287;51.644;8.494;2022-11-20T00:34:55;100062.00;;;-1.12;76.71
16355;BME280;8287;51.644;8.494;2022-11-20T00:37:22;100061.94;;;-1.17;76.64
16355;BME280;8287;51.644;8.494;2022-11-20T00:39:48;100057.97;;;-1.19;76.55
16355;BME280;8287;51.644;8.494;2022-11-20T00:42:15;100067.03;;;-1.22;76.29
16355;BME280;8287;51.644;8.494;2022-11-20T00:44:41;100066.81;;;-1.20;76.36
16355;BME280;8287;51.644;8.494;2022-11-20T00:47:09;100061.28;;;-1.24;76.04
16355;BME280;8287;51.644;8.494;2022-11-20T00:49:36;100071.09;;;-1.26;76.69
16355;BME280;8287;51.644;8.494;2022-11-20T00:52:02;100076.88;;;-1.24;77.07
16355;BME280;8287;51.644;8.494;2022-11-20T00:54:29;100061.03;;;-1.22;77.11
16355;BME280;8287;51.644;8.494;2022-11-20T00:56:55;100057.97;;;-1.19;76.92
16355;BME280;8287;51.644;8.494;2022-11-20T00:59:22;100056.41;;;-1.20;76.73
16355;BME280;8287;51.644;8.494;2022-11-20T01:01:49;100048.53;;;-1.25;76.44
16355;BME280;8287;51.644;8.494;2022-11-20T01:04:18;100056.41;;;-1.20;76.09
16355;BME280;8287;51.644;8.494;2022-11-20T01:06:44;100055.13;;;-1.18;76.56
16355;BME280;8287;51.644;8.494;2022-11-20T01:09:13;100063.97;;;-1.19;76.32
16355;BME280;8287;51.644;8.494;2022-11-20T01:11:42;100066.94;;;-1.27;76.41
16355;BME280;8287;51.644;8.494;2022-11-20T01:14:12;100055.28;;;-1.24;76.71
16355;BME280;8287;51.644;8.494;2022-11-20T01:16:40;100062.84;;;-1.23;76.29
16355;BME280;8287;51.644;8.494;2022-11-20T01:19:10;100060.03;;;-1.21;76.13
16355;BME280;8287;51.644;8.494;2022-11-20T01:21:39;100069.78;;;-1.28;75.71
16355;BME280;8287;51.644;8.494;2022-11-20T01:24:08;100069.31;;;-1.25;75.99
16355;BME280;8287;51.644;8.494;2022-11-20T01:26:38;100064.22;;;-1.20;75.33
16355;BME280;8287;51.644;8.494;2022-11-20T01:29:05;100061.72;;;-1.27;75.42
16355;BME280;8287;51.644;8.494;2022-11-20T01:31:34;100064.59;;;-1.28;75.51
16355;BME280;8287;51.644;8.494;2022-11-20T01:34:03;100070.81;;;-1.29;75.50
16355;BME280;8287;51.644;8.494;2022-11-20T01:36:32;100069.91;;;-1.35;74.71
16355;BME280;8287;51.644;8.494;2022-11-20T01:39:02;100061.22;;;-1.40;74.91
16355;BME280;8287;51.644;8.494;2022-11-20T01:41:31;100074.16;;;-1.45;74.72
16355;BME280;8287;51.644;8.494;2022-11-20T01:44:18;100073.78;;;-1.37;75.07
16355;BME280;8287;51.644;8.494;2022-11-20T01:46:52;100066.44;;;-1.40;73.92
16355;BME280;8287;51.644;8.494;2022-11-20T01:49:24;100064.22;;;-1.48;73.57
16355;BME280;8287;51.644;8.494;2022-11-20T01:51:55;100058.47;;;-1.50;73.86
16355;BME280;8287;51.644;8.494;2022-11-20T01:54:28;100046.16;;;-1.55;73.87
16355;BME280;8287;51.644;8.494;2022-11-20T01:56:58;100056.19;;;-1.47;73.71
16355;BME280;8287;51.644;8.494;2022-11-20T01:59:28;100055.97;;;-1.45;73.38
16355;BME280;8287;51.644;8.494;2022-11-20T02:01:55;100057.91;;;-1.52;72.92
16355;BME280;8287;51.644;8.494;2022-11-20T02:04:23;100061.91;;;-1.61;72.69
16355;BME280;8287;51.644;8.494;2022-11-20T02:06:53;100058.22;;;-1.77;73.76
16355;BME280;8287;51.644;8.494;2022-11-20T02:09:24;100064.38;;;-1.66;75.07
16355;BME280;8287;51.644;8.494;2022-11-20T02:11:51;100069.81;;;-1.68;74.96
16355;BME280;8287;51.644;8.494;2022-11-20T02:14:17;100064.50;;;-1.61;75.09
16355;BME280;8287;51.644;8.494;2022-11-20T02:16:45;100062.66;;;-1.61;75.67
16355;BME280;8287;51.644;8.494;2022-11-20T02:19:19;100063.00;;;-1.57;75.38
16355;BME280;8287;51.644;8.494;2022-11-20T02:21:56;100063.28;;;-1.70;74.90
16355;BME280;8287;51.644;8.494;2022-11-20T02:24:27;100057.50;;;-1.72;75.29
16355;BME280;8287;51.644;8.494;2022-11-20T02:26:57;100063.03;;;-1.69;75.79
16355;BME280;8287;51.644;8.494;2022-11-20T02:29:27;100048.16;;;-1.73;75.52
16355;BME280;8287;51.644;8.494;2022-11-20T02:31:55;100059.88;;;-1.71;75.12
16355;BME280;8287;51.644;8.494;2022-11-20T02:34:23;100046.69;;;-1.69;75.55
16355;BME280;8287;51.644;8.494;2022-11-20T02:36:50;100042.84;;;-1.67;75.27
16355;BME280;8287;51.644;8.494;2022-11-20T02:39:19;100051.69;;;-1.79;74.69
16355;BME280;8287;51.644;8.494;2022-11-20T02:41:48;100045.03;;;-1.87;75.07
16355;BME280;8287;51.644;8.494;2022-11-20T02:44:14;100043.13;;;-1.91;75.19
16355;BME280;8287;51.644;8.494;2022-11-20T02:46:41;100040.31;;;-1.90;75.66
16355;BME280;8287;51.644;8.494;2022-11-20T02:49:07;100038.50;;;-1.89;75.65
16355;BME280;8287;51.644;8.494;2022-11-20T02:51:34;100026.50;;;-1.79;75.73
16355;BME280;8287;51.644;8.494;2022-11-20T02:54:01;100020.44;;;-1.84;75.42
16355;BME280;8287;51.644;8.494;2022-11-20T02:56:27;100024.44;;;-1.77;75.69
16355;BME280;8287;51.644;8.494;2022-11-20T02:58:55;100020.97;;;-1.82;75.40
16355;BME280;8287;51.644;8.494;2022-11-20T03:01:22;100021.53;;;-1.80;75.21
16355;BME280;8287;51.644;8.494;2022-11-20T03:03:49;100016.94;;;-1.90;75.17
16355;BME280;8287;51.644;8.494;2022-11-20T03:06:15;100016.72;;;-1.88;74.86
16355;BME280;8287;51.644;8.494;2022-11-20T03:08:42;100018.94;;;-1.80;75.53
16355;BME280;8287;51.644;8.494;2022-11-20T03:11:09;100015.34;;;-1.79;75.42
16355;BME280;8287;51.644;8.494;2022-11-20T03:13:35;100018.81;;;-1.74;75.73
16355;BME280;8287;51.644;8.494;2022-11-20T03:16:12;100010.47;;;-1.76;76.27
16355;BME280;8287;51.644;8.494;2022-11-20T03:18:39;100011.25;;;-1.75;75.85
16355;BME280;8287;51.644;8.494;2022-11-20T03:21:07;100008.06;;;-1.66;75.60
16355;BME280;8287;51.644;8.494;2022-11-20T03:23:34;100002.72;;;-1.59;75.76
16355;BME280;8287;51.644;8.494;2022-11-20T03:26:13;100001.22;;;-1.55;76.02
16355;BME280;8287;51.644;8.494;2022-11-20T03:28:40;100000.28;;;-1.49;76.41
16355;BME280;8287;51.644;8.494;2022-11-20T03:31:10;99997.78;;;-1.44;75.87
16355;BME280;8287;51.644;8.494;2022-11-20T03:33:37;99999.53;;;-1.33;76.07
16355;BME280;8287;51.644;8.494;2022-11-20T03:36:05;99997.03;;;-1.28;76.19
16355;BME280;8287;51.644;8.494;2022-11-20T03:38:33;99995.75;;;-1.26;75.88
16355;BME280;8287;51.644;8.494;2022-11-20T03:41:00;100000.31;;;-1.16;75.74
16355;BME280;8287;51.644;8.494;2022-11-20T03:43:27;99993.88;;;-1.14;75.36
16355;BME280;8287;51.644;8.494;2022-11-20T03:45:54;100005.53;;;-1.00;75.08
16355;BME280;8287;51.644;8.494;2022-11-20T03:48:22;99997.25;;;-0.97;74.85
16355;BME280;8287;51.644;8.494;2022-11-20T03:50:49;99989.25;;;-0.95;74.77
16355;BME280;8287;51.644;8.494;2022-11-20T03:53:16;99993.00;;;-0.86;74.44
16355;BME280;8287;51.644;8.494;2022-11-20T03:55:43;99982.66;;;-0.81;73.98
16355;BME280;8287;51.644;8.494;2022-11-20T03:58:09;99993.53;;;-0.68;73.84
16355;BME280;8287;51.644;8.494;2022-11-20T04:00:36;99977.59;;;-0.71;73.43
16355;BME280;8287;51.644;8.494;2022-11-20T04:03:03;99985.56;;;-0.61;73.36
16355;BME280;8287;51.644;8.494;2022-11-20T04:05:32;99984.66;;;-0.50;73.45
16355;BME280;8287;51.644;8.494;2022-11-20T04:07:59;99986.78;;;-0.47;72.94
16355;BME280;8287;51.644;8.494;2022-11-20T04:10:26;99984.56;;;-0.39;73.13
16355;BME280;8287;51.644;8.494;2022-11-20T04:12:53;99983.03;;;-0.35;71.92
16355;BME280;8287;51.644;8.494;2022-11-20T04:15:19;99984.91;;;-0.30;72.03
16355;BME280;8287;51.644;8.494;2022-11-20T04:17:46;99980.41;;;-0.18;71.99
16355;BME280;8287;51.644;8.494;2022-11-20T04:20:12;99985.59;;;-0.18;71.58
16355;BME280;8287;51.644;8.494;2022-11-20T04:22:41;99999.69;;;-0.14;71.73
16355;BME280;8287;51.644;8.494;2022-11-20T04:25:08;99995.63;;;-0.06;72.04
16355;BME280;8287;51.644;8.494;2022-11-20T04:27:35;99998.38;;;0.04;71.68
16355;BME280;8287;51.644;8.494;2022-11-20T04:30:01;99994.25;;;0.08;71.93
16355;BME280;8287;51.644;8.494;2022-11-20T04:32:28;99995.88;;;0.14;72.46
16355;BME280;8287;51.644;8.494;2022-11-20T04:34:55;99982.56;;;0.11;72.78
16355;BME280;8287;51.644;8.494;2022-11-20T04:37:21;99978.13;;;0.11;73.82
16355;BME280;8287;51.644;8.494;2022-11-20T04:39:49;99985.63;;;0.29;73.62
16355;BME280;8287;51.644;8.494;2022-11-20T04:42:16;99980.41;;;0.29;74.02
16355;BME280;8287;51.644;8.494;2022-11-20T04:44:54;99979.13;;;0.32;75.00
16355;BME280;8287;51.644;8.494;2022-11-20T04:47:21;99965.66;;;0.40;74.83
16355;BME280;8287;51.644;8.494;2022-11-20T04:49:48;99971.75;;;0.50;74.57
16355;BME280;8287;51.644;8.494;2022-11-20T04:52:15;99970.47;;;0.53;75.03
16355;BME280;8287;51.644;8.494;2022-11-20T04:54:41;99969.66;;;0.52;75.73
16355;BME280;8287;51.644;8.494;2022-11-20T04:57:09;99964.50;;;0.57;76.07
16355;BME280;8287;51.644;8.494;2022-11-20T04:59:36;99971.34;;;0.63;76.26
16355;BME280;8287;51.644;8.494;2022-11-20T05:02:02;99964.31;;;0.64;76.75
16355;BME280;8287;51.644;8.494;2022-11-20T05:04:29;99961.47;;;0.65;76.62
16355;BME280;8287;51.644;8.494;2022-11-20T05:06:56;99969.34;;;0.75;76.58
16355;BME280;8287;51.644;8.494;2022-11-20T05:09:22;99968.31;;;0.76;76.73
16355;BME280;8287;51.644;8.494;2022-11-20T05:11:49;99972.50;;;0.77;76.99
16355;BME280;8287;51.644;8.494;2022-11-20T05:14:17;99970.47;;;0.84;77.42
16355;BME280;8287;51.644;8.494;2022-11-20T05:16:43;99962.44;;;0.91;77.18
16355;BME280;8287;51.644;8.494;2022-11-20T05:19:10;99971.06;;;0.91;77.89
16355;BME280;8287;51.644;8.494;2022-11-20T05:21:37;99976.84;;;1.03;77.53
16355;BME280;8287;51.644;8.494;2022-11-20T05:24:03;99976.91;;;1.08;77.51
16355;BME280;8287;51.644;8.494;2022-11-20T05:26:31;99981.09;;;1.09;78.05
16355;BME280;8287;51.644;8.494;2022-11-20T05:28:57;99968.50;;;1.01;78.19
16355;BME280;8287;51.644;8.494;2022-11-20T05:31:25;99966.13;;;1.00;78.51
16355;BME280;8287;51.644;8.494;2022-11-20T05:33:52;99964.03;;;0.97;78.91
16355;BME280;8287;51.644;8.494;2022-11-20T05:36:19;99971.22;;;1.16;78.08
16355;BME280;8287;51.644;8.494;2022-11-20T05:38:45;99969.38;;;1.17;77.98
16355;BME280;8287;51.644;8.494;2022-11-20T05:41:14;99972.28;;;1.20;78.08
16355;BME280;8287;51.644;8.494;2022-11-20T05:43:42;99965.56;;;1.29;77.71
16355;BME280;8287;51.644;8.494;2022-11-20T05:46:11;99970.22;;;1.22;78.51
16355;BME280;8287;51.644;8.494;2022-11-20T05:48:40;99961.06;;;1.20;78.34
16355;BME280;8287;51.644;8.494;2022-11-20T05:51:09;99955.13;;;1.29;77.79
16355;BME280;8287;51.644;8.494;2022-11-20T05:53:37;99961.16;;;1.35;77.45
16355;BME280;8287;51.644;8.494;2022-11-20T05:56:06;99962.97;;;1.34;77.34
16355;BME280;8287;51.644;8.494;2022-11-20T05:58:33;99964.03;;;1.33;77.73
16355;BME280;8287;51.644;8.494;2022-11-20T06:01:05;99964.31;;;1.37;77.31
16355;BME280;8287;51.644;8.494;2022-11-20T06:03:31;99969.53;;;1.42;77.28
16355;BME280;8287;51.644;8.494;2022-11-20T06:06:00;99959.91;;;1.42;77.26
16355;BME280;8287;51.644;8.494;2022-11-20T06:08:28;99958.59;;;1.45;77.25
16355;BME280;8287;51.644;8.494;2022-11-20T06:10:55;99960.69;;;1.43;77.42
16355;BME280;8287;51.644;8.494;2022-11-20T06:13:22;99966.69;;;1.43;77.71
16355;BME280;8287;51.644;8.494;2022-11-20T06:15:49;99954.44;;;1.44;78.17
16355;BME280;8287;51.644;8.494;2022-11-20T06:18:17;99960.41;;;1.39;78.19
16355;BME280;8287;51.644;8.494;2022-11-20T06:20:44;99975.31;;;1.49;77.66
16355;BME280;8287;51.644;8.494;2022-11-20T06:23:12;99968.00;;;1.51;78.26
16355;BME280;8287;51.644;8.494;2022-11-20T06:25:39;99958.88;;;1.48;78.45
16355;BME280;8287;51.644;8.494;2022-11-20T06:28:06;99956.28;;;1.53;78.74
16355;BME280;8287;51.644;8.494;2022-11-20T06:30:33;99957.38;;;1.57;78.84
16355;BME280;8287;51.644;8.494;2022-11-20T06:32:59;99961.03;;;1.61;78.35
16355;BME280;8287;51.644;8.494;2022-11-20T06:35:26;99965.19;;;1.62;78.74
16355;BME280;8287;51.644;8.494;2022-11-20T06:37:52;99964.44;;;1.62;79.17
16355;BME280;8287;51.644;8.494;2022-11-20T06:40:20;99950.34;;;1.63;78.98
16355;BME280;8287;51.644;8.494;2022-11-20T06:42:47;99956.31;;;1.58;79.61
16355;BME280;8287;51.644;8.494;2022-11-20T06:45:14;99958.88;;;1.48;80.17
16355;BME280;8287;51.644;8.494;2022-11-20T06:47:40;99968.78;;;1.46;80.26
16355;BME280;8287;51.644;8.494;2022-11-20T06:50:07;99969.53;;;1.37;81.04
16355;BME280;8287;51.644;8.494;2022-11-20T06:52:34;99962.50;;;1.42;81.13
16355;BME280;8287;51.644;8.494;2022-11-20T06:55:00;99962.53;;;1.47;81.53
16355;BME280;8287;51.644;8.494;2022-11-20T06:57:28;99971.94;;;1.53;81.51
16355;BME280;8287;51.644;8.494;2022-11-20T06:59:55;99958.41;;;1.61;81.03
16355;BME280;8287;51.644;8.494;2022-11-20T07:02:22;99975.44;;;1.69;80.84
16355;BME280;8287;51.644;8.494;2022-11-20T07:04:48;99982.94;;;1.60;81.22
16355;BME280;8287;51.644;8.494;2022-11-20T07:07:15;99977.72;;;1.60;81.68
16355;BME280;8287;51.644;8.494;2022-11-20T07:09:41;99966.72;;;1.53;81.79
16355;BME280;8287;51.644;8.494;2022-11-20T07:12:08;99967.22;;;1.45;82.04
16355;BME280;8287;51.644;8.494;2022-11-20T07:14:36;99964.13;;;1.53;82.88
16355;BME280;8287;51.644;8.494;2022-11-20T07:17:02;99970.16;;;1.59;82.72
16355;BME280;8287;51.644;8.494;2022-11-20T07:19:29;99976.97;;;1.65;82.68
16355;BME280;8287;51.644;8.494;2022-11-20T07:21:56;99981.34;;;1.49;82.53
16355;BME280;8287;51.644;8.494;2022-11-20T07:24:22;99979.25;;;1.51;82.64
16355;BME280;8287;51.644;8.494;2022-11-20T07:26:49;99982.63;;;1.47;82.34
16355;BME280;8287;51.644;8.494;2022-11-20T07:29:15;99991.75;;;1.44;82.68
16355;BME280;8287;51.644;8.494;2022-11-20T07:31:43;99994.38;;;1.49;82.62
16355;BME280;8287;51.644;8.494;2022-11-20T07:34:10;99986.03;;;1.52;82.19
16355;BME280;8287;51.644;8.494;2022-11-20T07:36:36;99983.44;;;1.47;82.25
16355;BME280;8287;51.644;8.494;2022-11-20T07:39:03;99995.47;;;1.58;81.99
16355;BME280;8287;51.644;8.494;2022-11-20T07:41:30;99998.09;;;1.63;81.43
16355;BME280;8287;51.644;8.494;2022-11-20T07:43:57;99988.66;;;1.47;81.63
16355;BME280;8287;51.644;8.494;2022-11-20T07:46:23;99985.47;;;1.40;81.79
16355;BME280;8287;51.644;8.494;2022-11-20T07:48:51;99993.31;;;1.45;82.04
16355;BME280;8287;51.644;8.494;2022-11-20T07:51:18;99991.50;;;1.46;82.15
16355;BME280;8287;51.644;8.494;2022-11-20T07:53:44;99986.50;;;1.39;81.75
16355;BME280;8287;51.644;8.494;2022-11-20T07:56:11;99979.63;;;1.28;81.75
16355;BME280;8287;51.644;8.494;2022-11-20T07:58:39;99984.03;;;1.18;82.32
16355;BME280;8287;51.644;8.494;2022-11-20T08:01:07;99986.41;;;1.24;82.40
16355;BME280;8287;51.644;8.494;2022-11-20T08:03:34;99990.16;;;1.38;82.80
16355;BME280;8287;51.644;8.494;2022-11-20T08:06:04;99979.19;;;1.41;82.01
16355;BME280;8287;51.644;8.494;2022-11-20T08:08:31;99982.81;;;1.35;82.43
16355;BME280;8287;51.644;8.494;2022-11-20T08:10:57;99987.88;;;1.52;82.30
16355;BME280;8287;51.644;8.494;2022-11-20T08:13:45;99988.69;;;1.62;81.94
16355;BME280;8287;51.644;8.494;2022-11-20T08:16:29;99984.78;;;1.60;81.59
16355;BME280;8287;51.644;8.494;2022-11-20T08:18:56;99981.38;;;1.59;82.06
16355;BME280;8287;51.644;8.494;2022-11-20T08:21:24;99967.59;;;1.74;81.83
16355;BME280;8287;51.644;8.494;2022-11-20T08:23:50;99977.16;;;1.53;81.41
16355;BME280;8287;51.644;8.494;2022-11-20T08:26:17;99971.91;;;1.43;82.18
16355;BME280;8287;51.644;8.494;2022-11-20T08:28:44;99960.94;;;1.46;82.60
16355;BME280;8287;51.644;8.494;2022-11-20T08:31:10;99967.28;;;1.55;82.45
16355;BME280;8287;51.644;8.494;2022-11-20T08:33:37;99969.34;;;1.53;82.33
16355;BME280;8287;51.644;8.494;2022-11-20T08:36:04;99972.75;;;1.59;82.41
16355;BME280;8287;51.644;8.494;2022-11-20T08:38:32;99971.25;;;1.68;82.65
16355;BME280;8287;51.644;8.494;2022-11-20T08:40:59;99969.41;;;1.68;82.42
16355;BME280;8287;51.644;8.494;2022-11-20T08:43:44;99970.72;;;1.66;82.57
16355;BME280;8287;51.644;8.494;2022-11-20T08:46:11;99975.72;;;1.72;82.61
16355;BME280;8287;51.644;8.494;2022-11-20T08:48:37;99985.13;;;1.73;82.42
16355;BME280;8287;51.644;8.494;2022-11-20T08:51:04;99978.84;;;1.79;82.50
16355;BME280;8287;51.644;8.494;2022-11-20T08:53:32;99975.78;;;1.92;82.28
16355;BME280;8287;51.644;8.494;2022-11-20T08:55:59;99979.69;;;1.85;82.00
16355;BME280;8287;51.644;8.494;2022-11-20T08:58:26;99979.44;;;1.91;82.49
16355;BME280;8287;51.644;8.494;2022-11-20T09:00:53;99974.50;;;2.00;82.07
16355;BME280;8287;51.644;8.494;2022-11-20T09:03:19;99988.88;;;2.02;82.08
16355;BME280;8287;51.644;8.494;2022-11-20T09:05:46;99987.00;;;1.88;82.02
16355;BME280;8287;51.644;8.494;2022-11-20T09:08:13;99988.03;;;1.87;82.27
16355;BME280;8287;51.644;8.494;2022-11-20T09:10:41;99986.78;;;2.04;82.64
16355;BME280;8287;51.644;8.494;2022-11-20T09:13:07;99992.88;;;2.20;82.08
16355;BME280;8287;51.644;8.494;2022-11-20T09:15:34;99978.50;;;2.27;82.02
16355;BME280;8287;51.644;8.494;2022-11-20T09:18:02;99981.13;;;2.22;81.84
16355;BME280;8287;51.644;8.494;2022-11-20T09:20:30;99987.66;;;2.35;81.97
16355;BME280;8287;51.644;8.494;2022-11-20T09:22:57;99984.28;;;2.34;81.73
16355;BME280;8287;51.644;8.494;2022-11-20T09:25:24;99984.81;;;2.51;80.97
16355;BME280;8287;51.644;8.494;2022-11-20T09:27:56;99992.69;;;2.56;80.88
16355;BME280;8287;51.644;8.494;2022-11-20T09:30:22;99981.94;;;2.53;80.94
16355;BME280;8287;51.644;8.494;2022-11-20T09:32:49;99975.41;;;2.55;80.81
16355;BME280;8287;51.644;8.494;2022-11-20T09:35:15;99979.06;;;2.59;81.02
16355;BME280;8287;51.644;8.494;2022-11-20T09:37:43;99980.91;;;2.64;81.01
16355;BME280;8287;51.644;8.494;2022-11-20T09:40:17;99979.06;;;2.69;81.07
16355;BME280;8287;51.644;8.494;2022-11-20T09:42:47;99983.00;;;2.57;80.95
16355;BME280;8287;51.644;8.494;2022-11-20T09:45:26;99979.09;;;2.64;80.82
16355;BME280;8287;51.644;8.494;2022-11-20T09:48:24;99986.16;;;2.79;81.30
16355;BME280;8287;51.644;8.494;2022-11-20T09:50:57;99984.84;;;2.81;80.79
16355;BME280;8287;51.644;8.494;2022-11-20T09:53:35;99978.03;;;2.75;81.27
16355;BME280;8287;51.644;8.494;2022-11-20T09:56:10;99984.06;;;2.81;81.54
16355;BME280;8287;51.644;8.494;2022-11-20T09:58:40;99980.66;;;3.00;80.63
16355;BME280;8287;51.644;8.494;2022-11-20T10:01:12;99964.16;;;2.85;81.33
16355;BME280;8287;51.644;8.494;2022-11-20T10:03:48;99968.88;;;3.08;81.21
16355;BME280;8287;51.644;8.494;2022-11-20T10:06:18;99969.91;;;3.16;80.87
16355;BME280;8287;51.644;8.494;2022-11-20T10:08:53;99958.38;;;3.17;80.70
16355;BME280;8287;51.644;8.494;2022-11-20T10:11:30;99960.97;;;3.32;80.43
16355;BME280;8287;51.644;8.494;2022-11-20T10:14:11;99950.53;;;3.27;79.88
16355;BME280;8287;51.644;8.494;2022-11-20T10:16:54;99954.47;;;3.15;80.17
16355;BME280;8287;51.644;8.494;2022-11-20T10:19:39;99947.13;;;3.27;80.57
16355;BME280;8287;51.644;8.494;2022-11-20T10:22:19;99943.13;;;3.54;79.81
16355;BME280;8287;51.644;8.494;2022-11-20T10:24:55;99933.06;;;3.76;79.57
16355;BME280;8287;51.644;8.494;2022-11-20T10:27:37;99931.41;;;3.95;79.02
16355;BME280;8287;51.644;8.494;2022-11-20T10:30:09;99923.75;;;4.09;78.22
16355;BME280;8287;51.644;8.494;2022-11-20T10:32:39;99932.09;;;4.11;77.60
16355;BME280;8287;51.644;8.494;2022-11-20T10:35:16;99913.66;;;4.26;77.26
16355;BME280;8287;51.644;8.494;2022-11-20T10:37:46;99915.72;;;4.34;77.38
16355;BME280;8287;51.644;8.494;2022-11-20T10:40:20;99910.06;;;4.50;76.79
16355;BME280;8287;51.644;8.494;2022-11-20T10:42:51;99903.97;;;4.60;76.40
16355;BME280;8287;51.644;8.494;2022-11-20T10:45:31;99907.34;;;4.65;75.93
16355;BME280;8287;51.644;8.494;2022-11-20T10:48:10;99896.66;;;4.57;75.70
16355;BME280;8287;51.644;8.494;2022-11-20T10:50:40;99899.72;;;4.64;75.58
16355;BME280;8287;51.644;8.494;2022-11-20T10:53:18;99894.72;;;4.67;75.32
16355;BME280;8287;51.644;8.494;2022-11-20T10:55:52;99887.53;;;4.78;75.80
16355;BME280;8287;51.644;8.494;2022-11-20T10:58:26;99882.50;;;4.86;75.56
16355;BME280;8287;51.644;8.494;2022-11-20T11:01:03;99879.56;;;4.88;75.44
16355;BME280;8287;51.644;8.494;2022-11-20T11:03:32;99882.38;;;4.96;75.39
16355;BME280;8287;51.644;8.494;2022-11-20T11:06:03;99873.91;;;5.04;75.26
16355;BME280;8287;51.644;8.494;2022-11-20T11:08:37;99877.84;;;5.02;74.94
16355;BME280;8287;51.644;8.494;2022-11-20T11:11:14;99874.50;;;5.20;74.24
16355;BME280;8287;51.644;8.494;2022-11-20T11:13:44;99871.31;;;5.23;74.34
16355;BME280;8287;51.644;8.494;2022-11-20T11:16:20;99864.38;;;5.32;73.70
16355;BME280;8287;51.644;8.494;2022-11-20T11:18:48;99859.59;;;5.15;73.32
16355;BME280;8287;51.644;8.494;2022-11-20T11:21:21;99871.09;;;5.19;74.02
16355;BME280;8287;51.644;8.494;2022-11-20T11:23:57;99859.34;;;5.35;73.71
16355;BME280;8287;51.644;8.494;2022-11-20T11:26:24;99859.56;;;5.39;73.19
16355;BME280;8287;51.644;8.494;2022-11-20T11:28:53;99860.50;;;5.48;73.11
16355;BME280;8287;51.644;8.494;2022-11-20T11:31:25;99860.41;;;5.58;72.93
16355;BME280;8287;51.644;8.494;2022-11-20T11:34:03;99862.09;;;5.67;72.66
16355;BME280;8287;51.644;8.494;2022-11-20T11:36:33;99862.75;;;5.59;72.74
16355;BME280;8287;51.644;8.494;2022-11-20T11:39:01;99860.41;;;5.58;72.27
16355;BME280;8287;51.644;8.494;2022-11-20T11:41:30;99853.56;;;5.57;72.18
16355;BME280;8287;51.644;8.494;2022-11-20T11:44:01;99848.41;;;5.70;72.13
16355;BME280;8287;51.644;8.494;2022-11-20T11:46:52;99847.25;;;5.81;72.04
16355;BME280;8287;51.644;8.494;2022-11-20T11:49:21;99842.63;;;5.92;71.92
16355;BME280;8287;51.644;8.494;2022-11-20T11:52:10;99832.22;;;5.82;71.95
16355;BME280;8287;51.644;8.494;2022-11-20T11:54:45;99839.69;;;5.93;71.31
16355;BME280;8287;51.644;8.494;2022-11-20T11:57:17;99847.44;;;5.85;70.84
16355;BME280;8287;51.644;8.494;2022-11-20T11:59:57;99837.84;;;5.94;70.77
16355;BME280;8287;51.644;8.494;2022-11-20T12:02:34;99840.81;;;6.06;70.12
16355;BME280;8287;51.644;8.494;2022-11-20T12:05:10;99833.56;;;6.16;69.13
16355;BME280;8287;51.644;8.494;2022-11-20T12:07:43;99841.13;;;6.36;68.33
16355;BME280;8287;51.644;8.494;2022-11-20T12:10:17;99831.91;;;6.52;68.21
16355;BME280;8287;51.644;8.494;2022-11-20T12:12:50;99825.22;;;6.59;66.98
16355;BME280;8287;51.644;8.494;2022-11-20T12:15:25;99834.88;;;6.64;66.04
16355;BME280;8287;51.644;8.494;2022-11-20T12:17:53;99834.56;;;6.65;65.93
16355;BME280;8287;51.644;8.494;2022-11-20T12:20:22;99823.94;;;6.57;66.62
16355;BME280;8287;51.644;8.494;2022-11-20T12:22:56;99824.63;;;6.62;65.93
16355;BME280;8287;51.644;8.494;2022-11-20T12:25:28;99814.19;;;6.57;64.80
16355;BME280;8287;51.644;8.494;2022-11-20T12:28:14;99824.44;;;6.72;65.75
16355;BME280;8287;51.644;8.494;2022-11-20T12:30:51;99820.25;;;6.71;64.32
16355;BME280;8287;51.644;8.494;2022-11-20T12:36:30;99806.13;;;6.54;63.84
16355;BME280;8287;51.644;8.494;2022-11-20T12:39:11;99803.75;;;6.52;63.56
16355;BME280;8287;51.644;8.494;2022-11-20T12:41:49;99805.25;;;6.58;64.08
16355;BME280;8287;51.644;8.494;2022-11-20T12:47:51;99807.75;;;6.50;62.24
16355;BME280;8287;51.644;8.494;2022-11-20T12:50:28;99798.69;;;6.56;63.50
16355;BME280;8287;51.644;8.494;2022-11-20T12:53:03;99802.44;;;6.68;62.88
16355;BME280;8287;51.644;8.494;2022-11-20T12:55:43;99790.03;;;6.69;62.87
16355;BME280;8287;51.644;8.494;2022-11-20T12:58:19;99782.72;;;6.79;61.81
16355;BME280;8287;51.644;8.494;2022-11-20T13:00:55;99774.06;;;6.92;61.61
16355;BME280;8287;51.644;8.494;2022-11-20T13:03:42;99765.97;;;7.02;62.00
16355;BME280;8287;51.644;8.494;2022-11-20T13:06:15;99759.00;;;7.20;61.89
16355;BME280;8287;51.644;8.494;2022-11-20T13:08:48;99773.34;;;7.27;61.23
16355;BME280;8287;51.644;8.494;2022-11-20T13:11:19;99776.47;;;7.29;60.78
16355;BME280;8287;51.644;8.494;2022-11-20T13:14:04;99763.53;;;7.41;60.53
16355;BME280;8287;51.644;8.494;2022-11-20T13:16:38;99768.94;;;7.36;60.87
16355;BME280;8287;51.644;8.494;2022-11-20T13:19:11;99772.88;;;7.25;58.78
16355;BME280;8287;51.644;8.494;2022-11-20T13:21:39;99768.28;;;7.17;60.39
16355;BME280;8287;51.644;8.494;2022-11-20T13:24:22;99766.72;;;7.30;60.41
16355;BME280;8287;51.644;8.494;2022-11-20T13:27:03;99763.88;;;7.26;59.32
16355;BME280;8287;51.644;8.494;2022-11-20T13:29:31;99766.63;;;7.21;59.40
16355;BME280;8287;51.644;8.494;2022-11-20T13:32:04;99768.19;;;7.09;59.56
16355;BME280;8287;51.644;8.494;2022-11-20T13:34:32;99760.38;;;7.04;59.38